sensor_id;sensor_type;location;lat;lon;timestamp;pressure;altitude;pressure_sealevel;temperature;humidity
30967;BME280;17649;51.836;8.330;2022-08-19T00:01:58;100779.41;;;19.74;100.00
30967;BME280;17649;51.836;8.330;2022-08-19T00:04:58;100782.91;;;19.65;100.00
30967;BME280;17649;51.836;8.330;2022-08-19T00:07:59;100784.41;;;19.58;100.00
30967;BME280;17649;51.836;8.330;2022-08-19T00:11:03;100782.06;;;19.55;100.00
30967;BME280;17649;51.836;8.330;2022-08-19T00:14:04;100787.56;;;19.52;100.00
30967;BME280;17649;51.836;8.330;2022-08-19T00:17:06;100800.94;;;19.49;100.00
30967;BME280;17649;51.836;8.330;2022-08-19T00:20:11;100805.78;;;19.44;100.00
30967;BME280;17649;51.836;8.330;2022-08-19T00:23:13;100812.53;;;19.36;100.00
30967;BME280;17649;51.836;8.330;2022-08-19T00:26:13;100801.88;;;19.28;100.00
30967;BME280;17649;51.836;8.330;2022-08-19T00:29:15;100790.69;;;19.17;100.00
30967;BME280;17649;51.836;8.330;2022-08-19T00:32:17;100789.59;;;19.10;100.00
30967;BME280;17649;51.836;8.330;2022-08-19T00:35:18;100794.13;;;19.08;100.00
30967;BME280;17649;51.836;8.330;2022-08-19T00:38:19;100790.69;;;19.07;100.00
30967;BME280;17649;51.836;8.330;2022-08-19T00:41:24;100791.78;;;19.04;100.00
30967;BME280;17649;51.836;8.330;2022-08-19T00:44:27;100791.66;;;19.06;100.00
30967;BME280;17649;51.836;8.330;2022-08-19T00:47:31;100790.94;;;19.04;100.00
30967;BME280;17649;51.836;8.330;2022-08-19T00:50:35;100793.31;;;19.07;100.00
30967;BME280;17649;51.836;8.330;2022-08-19T00:53:35;100797.31;;;19.11;100.00
30967;BME280;17649;51.836;8.330;2022-08-19T00:56:36;100798.97;;;19.12;100.00
30967;BME280;17649;51.836;8.330;2022-08-19T00:59:37;100794.00;;;19.09;100.00
30967;BME280;17649;51.836;8.330;2022-08-19T01:02:42;100795.66;;;19.10;100.00
30967;BME280;17649;51.836;8.330;2022-08-19T01:05:43;100796.63;;;19.09;100.00
30967;BME280;17649;51.836;8.330;2022-08-19T01:08:48;100798.56;;;19.07;100.00
30967;BME280;17649;51.836;8.330;2022-08-19T01:11:49;100792.88;;;19.02;100.00
30967;BME280;17649;51.836;8.330;2022-08-19T01:14:50;100785.41;;;18.97;100.00
30967;BME280;17649;51.836;8.330;2022-08-19T01:17:51;100779.34;;;18.97;100.00
30967;BME280;17649;51.836;8.330;2022-08-19T01:20:53;100775.03;;;18.86;100.00
30967;BME280;17649;51.836;8.330;2022-08-19T01:23:58;100778.19;;;18.80;100.00
30967;BME280;17649;51.836;8.330;2022-08-19T01:26:59;100785.09;;;18.81;100.00
30967;BME280;17649;51.836;8.330;2022-08-19T01:30:04;100789.50;;;18.81;100.00
30967;BME280;17649;51.836;8.330;2022-08-19T01:33:05;100785.91;;;18.82;100.00
30967;BME280;17649;51.836;8.330;2022-08-19T01:36:07;100782.47;;;18.81;100.00
30967;BME280;17649;51.836;8.330;2022-08-19T01:39:09;100777.34;;;18.80;100.00
30967;BME280;17649;51.836;8.330;2022-08-19T01:42:10;100770.47;;;18.79;100.00
30967;BME280;17649;51.836;8.330;2022-08-19T01:45:11;100768.81;;;18.77;100.00
30967;BME280;17649;51.836;8.330;2022-08-19T01:48:16;100751.13;;;18.70;100.00
30967;BME280;17649;51.836;8.330;2022-08-19T01:51:20;100744.72;;;18.63;100.00
30967;BME280;17649;51.836;8.330;2022-08-19T01:54:23;100735.94;;;18.64;100.00
30967;BME280;17649;51.836;8.330;2022-08-19T01:57:23;100745.09;;;18.58;100.00
30967;BME280;17649;51.836;8.330;2022-08-19T02:00:25;100743.31;;;18.59;100.00
30967;BME280;17649;51.836;8.330;2022-08-19T02:03:28;100744.03;;;18.61;100.00
30967;BME280;17649;51.836;8.330;2022-08-19T02:06:32;100745.69;;;18.62;100.00
30967;BME280;17649;51.836;8.330;2022-08-19T02:09:51;100749.38;;;18.59;100.00
30967;BME280;17649;51.836;8.330;2022-08-19T02:12:53;100750.47;;;18.57;100.00
30967;BME280;17649;51.836;8.330;2022-08-19T02:16:02;100754.19;;;18.54;100.00
30967;BME280;17649;51.836;8.330;2022-08-19T02:19:07;100749.22;;;18.51;100.00
30967;BME280;17649;51.836;8.330;2022-08-19T02:22:07;100738.06;;;18.49;100.00
30967;BME280;17649;51.836;8.330;2022-08-19T02:25:09;100731.28;;;18.46;100.00
30967;BME280;17649;51.836;8.330;2022-08-19T02:28:15;100740.34;;;18.42;100.00
30967;BME280;17649;51.836;8.330;2022-08-19T02:31:24;100746.56;;;18.41;100.00
30967;BME280;17649;51.836;8.330;2022-08-19T02:34:28;100739.94;;;18.37;100.00
30967;BME280;17649;51.836;8.330;2022-08-19T02:37:29;100749.28;;;18.30;100.00
30967;BME280;17649;51.836;8.330;2022-08-19T02:40:52;100748.84;;;18.25;100.00
30967;BME280;17649;51.836;8.330;2022-08-19T02:43:55;100748.84;;;18.25;100.00
30967;BME280;17649;51.836;8.330;2022-08-19T02:47:00;100758.75;;;18.22;100.00
30967;BME280;17649;51.836;8.330;2022-08-19T02:53:45;100740.69;;;18.18;100.00
30967;BME280;17649;51.836;8.330;2022-08-19T02:56:47;100746.75;;;18.19;100.00
30967;BME280;17649;51.836;8.330;2022-08-19T02:59:51;100749.50;;;18.17;100.00
30967;BME280;17649;51.836;8.330;2022-08-19T03:02:52;100747.72;;;18.18;100.00
30967;BME280;17649;51.836;8.330;2022-08-19T03:06:02;100753.09;;;18.16;100.00
30967;BME280;17649;51.836;8.330;2022-08-19T03:09:09;100761.91;;;18.15;100.00
30967;BME280;17649;51.836;8.330;2022-08-19T03:12:10;100768.91;;;18.15;100.00
30967;BME280;17649;51.836;8.330;2022-08-19T03:15:10;100769.28;;;18.10;100.00
30967;BME280;17649;51.836;8.330;2022-08-19T03:18:12;100767.19;;;18.04;100.00
30967;BME280;17649;51.836;8.330;2022-08-19T03:21:19;100754.59;;;17.98;100.00
30967;BME280;17649;51.836;8.330;2022-08-19T03:24:19;100769.06;;;17.93;100.00
30967;BME280;17649;51.836;8.330;2022-08-19T03:27:20;100768.34;;;17.91;100.00
30967;BME280;17649;51.836;8.330;2022-08-19T03:30:29;100769.19;;;17.91;100.00
30967;BME280;17649;51.836;8.330;2022-08-19T03:33:34;100768.91;;;17.94;100.00
30967;BME280;17649;51.836;8.330;2022-08-19T03:36:37;100767.00;;;17.96;100.00
30967;BME280;17649;51.836;8.330;2022-08-19T03:39:38;100764.50;;;17.95;100.00
30967;BME280;17649;51.836;8.330;2022-08-19T03:42:43;100761.31;;;17.91;100.00
30967;BME280;17649;51.836;8.330;2022-08-19T03:46:08;100771.09;;;17.89;100.00
30967;BME280;17649;51.836;8.330;2022-08-19T03:49:07;100773.03;;;17.87;100.00
30967;BME280;17649;51.836;8.330;2022-08-19T03:52:11;100783.34;;;17.88;100.00
30967;BME280;17649;51.836;8.330;2022-08-19T03:55:14;100778.25;;;17.87;100.00
30967;BME280;17649;51.836;8.330;2022-08-19T03:58:17;100793.97;;;17.87;100.00
30967;BME280;17649;51.836;8.330;2022-08-19T04:01:21;100787.75;;;17.88;100.00
30967;BME280;17649;51.836;8.330;2022-08-19T04:04:23;100784.31;;;17.87;100.00
30967;BME280;17649;51.836;8.330;2022-08-19T04:07:25;100775.63;;;17.87;100.00
30967;BME280;17649;51.836;8.330;2022-08-19T04:10:27;100786.81;;;17.89;100.00
30967;BME280;17649;51.836;8.330;2022-08-19T04:13:31;100785.00;;;17.90;100.00
30967;BME280;17649;51.836;8.330;2022-08-19T04:16:32;100797.28;;;17.89;100.00
30967;BME280;17649;51.836;8.330;2022-08-19T04:19:45;100794.78;;;17.87;100.00
30967;BME280;17649;51.836;8.330;2022-08-19T04:22:46;100800.03;;;17.87;100.00
30967;BME280;17649;51.836;8.330;2022-08-19T04:25:47;100798.94;;;17.90;100.00
30967;BME280;17649;51.836;8.330;2022-08-19T04:28:52;100792.88;;;17.90;100.00
30967;BME280;17649;51.836;8.330;2022-08-19T04:31:55;100794.78;;;17.87;100.00
30967;BME280;17649;51.836;8.330;2022-08-19T04:34:55;100803.47;;;17.88;100.00
30967;BME280;17649;51.836;8.330;2022-08-19T04:37:58;100807.19;;;17.85;100.00
30967;BME280;17649;51.836;8.330;2022-08-19T04:40:58;100814.28;;;17.83;100.00
30967;BME280;17649;51.836;8.330;2022-08-19T04:44:20;100800.25;;;17.84;100.00
30967;BME280;17649;51.836;8.330;2022-08-19T04:47:21;100800.25;;;17.84;100.00
30967;BME280;17649;51.836;8.330;2022-08-19T04:50:24;100807.19;;;17.85;100.00
30967;BME280;17649;51.836;8.330;2022-08-19T04:53:29;100806.09;;;17.88;100.00
30967;BME280;17649;51.836;8.330;2022-08-19T04:56:30;100803.34;;;17.90;100.00
30967;BME280;17649;51.836;8.330;2022-08-19T04:59:31;100813.56;;;17.93;100.00
30967;BME280;17649;51.836;8.330;2022-08-19T05:02:34;100816.16;;;17.93;100.00
30967;BME280;17649;51.836;8.330;2022-08-19T05:05:37;100808.44;;;17.91;100.00
30967;BME280;17649;51.836;8.330;2022-08-19T05:08:38;100814.63;;;17.90;100.00
30967;BME280;17649;51.836;8.330;2022-08-19T05:11:41;100821.53;;;17.91;100.00
30967;BME280;17649;51.836;8.330;2022-08-19T05:14:41;100818.78;;;17.93;100.00
30967;BME280;17649;51.836;8.330;2022-08-19T05:17:41;100818.66;;;17.94;100.00
30967;BME280;17649;51.836;8.330;2022-08-19T05:21:05;100819.22;;;17.98;100.00
30967;BME280;17649;51.836;8.330;2022-08-19T05:24:24;100812.91;;;18.00;100.00
30967;BME280;17649;51.836;8.330;2022-08-19T05:27:24;100805.78;;;18.02;100.00
30967;BME280;17649;51.836;8.330;2022-08-19T05:30:24;100810.06;;;18.03;100.00
30967;BME280;17649;51.836;8.330;2022-08-19T05:33:25;100799.31;;;18.06;100.00
30967;BME280;17649;51.836;8.330;2022-08-19T05:36:25;100804.28;;;18.09;100.00
30967;BME280;17649;51.836;8.330;2022-08-19T05:39:27;100800.84;;;18.09;100.00
30967;BME280;17649;51.836;8.330;2022-08-19T05:42:28;100799.63;;;18.13;100.00
30967;BME280;17649;51.836;8.330;2022-08-19T05:45:30;100794.16;;;18.16;100.00
30967;BME280;17649;51.836;8.330;2022-08-19T05:48:30;100790.44;;;18.18;100.00
30967;BME280;17649;51.836;8.330;2022-08-19T05:51:31;100791.69;;;18.24;100.00
30967;BME280;17649;51.836;8.330;2022-08-19T05:54:32;100787.84;;;18.28;100.00
30967;BME280;17649;51.836;8.330;2022-08-19T05:57:43;100783.22;;;18.32;100.00
30967;BME280;17649;51.836;8.330;2022-08-19T06:04:47;100779.22;;;18.37;100.00
30967;BME280;17649;51.836;8.330;2022-08-19T06:08:02;100783.81;;;18.45;100.00
30967;BME280;17649;51.836;8.330;2022-08-19T06:11:51;100774.47;;;18.52;100.00
30967;BME280;17649;51.836;8.330;2022-08-19T06:14:38;100783.34;;;18.61;100.00
30967;BME280;17649;51.836;8.330;2022-08-19T06:17:39;100785.03;;;18.71;100.00
30967;BME280;17649;51.836;8.330;2022-08-19T06:20:59;100780.13;;;18.78;100.00
30967;BME280;17649;51.836;8.330;2022-08-19T06:24:14;100785.97;;;18.91;100.00
30967;BME280;17649;51.836;8.330;2022-08-19T06:27:17;100783.91;;;19.04;100.00
30967;BME280;17649;51.836;8.330;2022-08-19T06:30:19;100786.13;;;19.19;100.00
30967;BME280;17649;51.836;8.330;2022-08-19T06:33:21;100777.31;;;19.29;100.00
30967;BME280;17649;51.836;8.330;2022-08-19T06:36:26;100772.78;;;19.41;100.00
30967;BME280;17649;51.836;8.330;2022-08-19T06:39:32;100771.00;;;19.51;100.00
30967;BME280;17649;51.836;8.330;2022-08-19T06:42:39;100764.09;;;19.60;100.00
30967;BME280;17649;51.836;8.330;2022-08-19T06:45:41;100776.69;;;19.66;100.00
30967;BME280;17649;51.836;8.330;2022-08-19T06:48:44;100772.81;;;19.80;100.00
30967;BME280;17649;51.836;8.330;2022-08-19T06:51:44;100768.19;;;19.91;100.00
30967;BME280;17649;51.836;8.330;2022-08-19T06:54:49;100770.53;;;20.04;100.00
30967;BME280;17649;51.836;8.330;2022-08-19T06:57:49;100770.50;;;20.23;100.00
30967;BME280;17649;51.836;8.330;2022-08-19T07:00:53;100776.53;;;20.43;100.00
30967;BME280;17649;51.836;8.330;2022-08-19T07:03:53;100772.47;;;20.59;100.00
30967;BME280;17649;51.836;8.330;2022-08-19T07:07:04;100778.38;;;20.70;100.00
30967;BME280;17649;51.836;8.330;2022-08-19T07:10:07;100776.91;;;20.86;100.00
30967;BME280;17649;51.836;8.330;2022-08-19T07:13:07;100777.50;;;20.97;100.00
30967;BME280;17649;51.836;8.330;2022-08-19T07:16:09;100773.63;;;21.01;100.00
30967;BME280;17649;51.836;8.330;2022-08-19T07:19:09;100763.03;;;21.11;100.00
30967;BME280;17649;51.836;8.330;2022-08-19T07:22:09;100765.00;;;21.27;100.00
30967;BME280;17649;51.836;8.330;2022-08-19T07:25:10;100772.38;;;21.41;100.00
30967;BME280;17649;51.836;8.330;2022-08-19T07:28:13;100771.34;;;21.34;100.00
30967;BME280;17649;51.836;8.330;2022-08-19T07:31:14;100778.56;;;21.50;100.00
30967;BME280;17649;51.836;8.330;2022-08-19T07:34:15;100787.19;;;21.78;100.00
30967;BME280;17649;51.836;8.330;2022-08-19T07:37:15;100792.22;;;21.89;100.00
30967;BME280;17649;51.836;8.330;2022-08-19T07:40:17;100780.22;;;22.12;100.00
30967;BME280;17649;51.836;8.330;2022-08-19T07:43:19;100784.81;;;22.36;100.00
30967;BME280;17649;51.836;8.330;2022-08-19T07:46:25;100787.75;;;22.67;100.00
30967;BME280;17649;51.836;8.330;2022-08-19T07:49:30;100782.13;;;22.96;100.00
30967;BME280;17649;51.836;8.330;2022-08-19T07:52:31;100782.53;;;23.34;100.00
30967;BME280;17649;51.836;8.330;2022-08-19T07:55:33;100781.75;;;23.82;100.00
30967;BME280;17649;51.836;8.330;2022-08-19T07:58:37;100767.19;;;24.02;100.00
30967;BME280;17649;51.836;8.330;2022-08-19T08:01:38;100770.84;;;23.77;100.00
30967;BME280;17649;51.836;8.330;2022-08-19T08:04:39;100779.28;;;23.97;100.00
30967;BME280;17649;51.836;8.330;2022-08-19T08:07:58;100775.78;;;24.13;100.00
30967;BME280;17649;51.836;8.330;2022-08-19T08:11:18;100774.19;;;24.51;100.00
30967;BME280;17649;51.836;8.330;2022-08-19T08:14:20;100770.31;;;24.69;100.00
30967;BME280;17649;51.836;8.330;2022-08-19T08:17:23;100776.06;;;24.34;100.00
30967;BME280;17649;51.836;8.330;2022-08-19T08:20:24;100784.00;;;24.26;100.00
30967;BME280;17649;51.836;8.330;2022-08-19T08:23:24;100777.59;;;24.12;100.00
30967;BME280;17649;51.836;8.330;2022-08-19T08:26:28;100775.09;;;24.19;100.00
30967;BME280;17649;51.836;8.330;2022-08-19T08:29:29;100771.31;;;24.68;100.00
30967;BME280;17649;51.836;8.330;2022-08-19T08:32:29;100773.91;;;25.16;100.00
30967;BME280;17649;51.836;8.330;2022-08-19T08:35:30;100769.69;;;25.30;100.00
30967;BME280;17649;51.836;8.330;2022-08-19T08:38:31;100772.16;;;25.31;100.00
30967;BME280;17649;51.836;8.330;2022-08-19T08:44:54;100767.28;;;25.57;100.00
30967;BME280;17649;51.836;8.330;2022-08-19T08:47:57;100763.19;;;25.32;100.00
30967;BME280;17649;51.836;8.330;2022-08-19T08:51:00;100767.19;;;25.28;100.00
30967;BME280;17649;51.836;8.330;2022-08-19T08:54:04;100753.66;;;25.23;100.00
30967;BME280;17649;51.836;8.330;2022-08-19T08:58:09;100759.72;;;25.32;100.00
30967;BME280;17649;51.836;8.330;2022-08-19T09:00:37;100752.50;;;25.86;100.00
30967;BME280;17649;51.836;8.330;2022-08-19T09:03:39;100748.31;;;25.92;100.00
30967;BME280;17649;51.836;8.330;2022-08-19T09:06:47;100752.44;;;25.94;100.00
30967;BME280;17649;51.836;8.330;2022-08-19T09:09:50;100743.47;;;26.25;100.00
30967;BME280;17649;51.836;8.330;2022-08-19T09:13:02;100749.78;;;26.09;100.00
30967;BME280;17649;51.836;8.330;2022-08-19T09:16:09;100751.63;;;26.53;100.00
30967;BME280;17649;51.836;8.330;2022-08-19T09:19:10;100754.53;;;26.28;100.00
30967;BME280;17649;51.836;8.330;2022-08-19T09:22:10;100748.13;;;26.08;100.00
30967;BME280;17649;51.836;8.330;2022-08-19T09:25:12;100756.44;;;25.67;100.00
30967;BME280;17649;51.836;8.330;2022-08-19T09:28:13;100758.97;;;24.84;100.00
30967;BME280;17649;51.836;8.330;2022-08-19T09:31:16;100761.53;;;25.08;100.00
30967;BME280;17649;51.836;8.330;2022-08-19T09:34:16;100759.97;;;25.45;100.00
30967;BME280;17649;51.836;8.330;2022-08-19T09:37:16;100756.19;;;25.62;100.00
30967;BME280;17649;51.836;8.330;2022-08-19T09:40:18;100748.13;;;25.93;100.00
30967;BME280;17649;51.836;8.330;2022-08-19T09:43:20;100755.31;;;26.37;100.00
30967;BME280;17649;51.836;8.330;2022-08-19T09:46:22;100753.72;;;26.13;100.00
30967;BME280;17649;51.836;8.330;2022-08-19T09:49:23;100753.22;;;25.80;100.00
30967;BME280;17649;51.836;8.330;2022-08-19T09:52:23;100767.59;;;25.63;100.00
30967;BME280;17649;51.836;8.330;2022-08-19T09:55:25;100757.16;;;25.84;100.00
30967;BME280;17649;51.836;8.330;2022-08-19T09:58:26;100749.84;;;26.01;100.00
30967;BME280;17649;51.836;8.330;2022-08-19T10:01:29;100740.19;;;26.08;100.00
30967;BME280;17649;51.836;8.330;2022-08-19T11:06:27;100699.69;;;27.22;100.00
30967;BME280;17649;51.836;8.330;2022-08-19T11:09:26;100695.19;;;27.44;100.00
30967;BME280;17649;51.836;8.330;2022-08-19T11:16:19;100696.31;;;28.60;100.00
30967;BME280;17649;51.836;8.330;2022-08-19T11:19:51;100699.53;;;28.49;100.00
30967;BME280;17649;51.836;8.330;2022-08-19T11:22:57;100696.88;;;28.49;100.00
30967;BME280;17649;51.836;8.330;2022-08-19T11:29:32;100688.47;;;28.11;100.00
30967;BME280;17649;51.836;8.330;2022-08-19T11:32:34;100686.78;;;27.97;100.00
30967;BME280;17649;51.836;8.330;2022-08-19T11:35:38;100679.41;;;27.92;100.00
30967;BME280;17649;51.836;8.330;2022-08-19T11:38:38;100671.03;;;29.63;100.00
30967;BME280;17649;51.836;8.330;2022-08-19T11:41:39;100669.13;;;30.80;100.00
30967;BME280;17649;51.836;8.330;2022-08-19T11:44:39;100661.34;;;31.10;100.00
30967;BME280;17649;51.836;8.330;2022-08-19T11:47:43;100666.19;;;31.88;83.85
30967;BME280;17649;51.836;8.330;2022-08-19T11:50:44;100652.09;;;32.47;85.12
30967;BME280;17649;51.836;8.330;2022-08-19T11:54:16;100651.59;;;33.57;69.51
30967;BME280;17649;51.836;8.330;2022-08-19T11:57:19;100661.34;;;33.98;61.99
30967;BME280;17649;51.836;8.330;2022-08-19T12:00:21;100650.97;;;34.87;60.57
30967;BME280;17649;51.836;8.330;2022-08-19T12:03:22;100650.50;;;34.79;58.60
30967;BME280;17649;51.836;8.330;2022-08-19T12:06:30;100650.81;;;35.66;56.50
30967;BME280;17649;51.836;8.330;2022-08-19T12:13:09;100635.91;;;34.29;57.32
30967;BME280;17649;51.836;8.330;2022-08-19T12:16:30;100656.69;;;32.88;67.12
30967;BME280;17649;51.836;8.330;2022-08-19T12:19:44;100660.72;;;31.58;75.13
30967;BME280;17649;51.836;8.330;2022-08-19T12:22:52;100636.44;;;30.53;85.61
30967;BME280;17649;51.836;8.330;2022-08-19T12:25:53;100649.59;;;30.48;92.56
30967;BME280;17649;51.836;8.330;2022-08-19T12:29:09;100647.44;;;30.70;86.95
30967;BME280;17649;51.836;8.330;2022-08-19T12:32:22;100624.72;;;30.54;88.21
30967;BME280;17649;51.836;8.330;2022-08-19T12:35:25;100622.78;;;29.72;100.00
30967;BME280;17649;51.836;8.330;2022-08-19T12:42:16;100629.41;;;32.91;71.75
30967;BME280;17649;51.836;8.330;2022-08-19T12:45:32;100621.59;;;34.52;71.71
30967;BME280;17649;51.836;8.330;2022-08-19T12:48:51;100613.03;;;34.55;46.36
30967;BME280;17649;51.836;8.330;2022-08-19T14:07:05;100568.34;;;42.03;29.69
30967;BME280;17649;51.836;8.330;2022-08-19T14:10:18;100571.50;;;40.72;32.24
30967;BME280;17649;51.836;8.330;2022-08-19T14:13:40;100594.16;;;37.23;35.21
30967;BME280;17649;51.836;8.330;2022-08-19T14:21:19;100578.50;;;34.19;51.32
30967;BME280;17649;51.836;8.330;2022-08-19T14:45:18;100584.56;;;32.57;46.24
30967;BME280;17649;51.836;8.330;2022-08-19T14:48:52;100587.88;;;34.45;42.67
30967;BME280;17649;51.836;8.330;2022-08-19T15:10:16;100559.94;;;41.62;29.49
30967;BME280;17649;51.836;8.330;2022-08-19T15:13:26;100568.47;;;43.51;29.00
30967;BME280;17649;51.836;8.330;2022-08-19T15:16:54;100578.19;;;39.67;30.03
30967;BME280;17649;51.836;8.330;2022-08-19T15:23:43;100583.50;;;37.48;33.62
30967;BME280;17649;51.836;8.330;2022-08-19T15:38:28;100603.25;;;39.08;30.53
30967;BME280;17649;51.836;8.330;2022-08-19T15:45:53;100600.91;;;42.27;28.03
30967;BME280;17649;51.836;8.330;2022-08-19T15:49:23;100602.94;;;43.14;25.26
30967;BME280;17649;51.836;8.330;2022-08-19T15:56:29;100598.00;;;45.05;25.26
30967;BME280;17649;51.836;8.330;2022-08-19T15:59:52;100593.03;;;45.64;22.46
30967;BME280;17649;51.836;8.330;2022-08-19T16:03:31;100597.78;;;45.33;22.86
30967;BME280;17649;51.836;8.330;2022-08-19T16:07:02;100609.03;;;44.47;24.27
30967;BME280;17649;51.836;8.330;2022-08-19T16:10:03;100612.97;;;40.77;25.69
30967;BME280;17649;51.836;8.330;2022-08-19T16:13:03;100629.88;;;37.35;30.10
30967;BME280;17649;51.836;8.330;2022-08-19T16:16:05;100627.63;;;36.31;31.71
30967;BME280;17649;51.836;8.330;2022-08-19T16:19:06;100628.56;;;35.93;32.25
30967;BME280;17649;51.836;8.330;2022-08-19T16:22:07;100624.44;;;37.30;31.51
30967;BME280;17649;51.836;8.330;2022-08-19T16:25:08;100620.13;;;36.92;31.26
30967;BME280;17649;51.836;8.330;2022-08-19T16:28:09;100613.09;;;34.15;35.61
30967;BME280;17649;51.836;8.330;2022-08-19T16:31:10;100619.63;;;32.55;38.59
30967;BME280;17649;51.836;8.330;2022-08-19T16:34:11;100633.09;;;31.64;43.86
30967;BME280;17649;51.836;8.330;2022-08-19T16:37:13;100625.00;;;30.77;47.78
30967;BME280;17649;51.836;8.330;2022-08-19T16:40:13;100633.56;;;30.48;54.85
30967;BME280;17649;51.836;8.330;2022-08-19T16:43:14;100626.94;;;30.19;63.23
30967;BME280;17649;51.836;8.330;2022-08-19T16:46:15;100628.47;;;29.88;63.22
30967;BME280;17649;51.836;8.330;2022-08-19T16:49:15;100636.75;;;29.67;64.99
30967;BME280;17649;51.836;8.330;2022-08-19T16:52:16;100638.00;;;29.45;71.08
30967;BME280;17649;51.836;8.330;2022-08-19T16:55:16;100643.75;;;29.35;72.13
30967;BME280;17649;51.836;8.330;2022-08-19T16:58:17;100647.25;;;29.22;74.54
30967;BME280;17649;51.836;8.330;2022-08-19T17:01:18;100648.00;;;28.76;80.36
30967;BME280;17649;51.836;8.330;2022-08-19T17:04:18;100644.50;;;28.69;85.95
30967;BME280;17649;51.836;8.330;2022-08-19T17:07:19;100652.28;;;28.64;91.81
30967;BME280;17649;51.836;8.330;2022-08-19T17:10:19;100641.81;;;28.56;98.65
30967;BME280;17649;51.836;8.330;2022-08-19T17:13:20;100640.78;;;28.44;100.00
30967;BME280;17649;51.836;8.330;2022-08-19T17:16:22;100643.41;;;28.31;100.00
30967;BME280;17649;51.836;8.330;2022-08-19T17:19:23;100645.16;;;28.23;100.00
30967;BME280;17649;51.836;8.330;2022-08-19T17:22:23;100639.03;;;28.23;100.00
30967;BME280;17649;51.836;8.330;2022-08-19T17:25:24;100641.47;;;28.18;100.00
30967;BME280;17649;51.836;8.330;2022-08-19T17:28:27;100637.78;;;28.12;100.00
30967;BME280;17649;51.836;8.330;2022-08-19T17:31:28;100641.78;;;27.95;100.00
30967;BME280;17649;51.836;8.330;2022-08-19T17:34:29;100633.34;;;27.85;100.00
30967;BME280;17649;51.836;8.330;2022-08-19T17:37:29;100630.22;;;27.75;100.00
30967;BME280;17649;51.836;8.330;2022-08-19T17:40:29;100637.53;;;27.66;100.00
30967;BME280;17649;51.836;8.330;2022-08-19T17:43:33;100637.47;;;27.59;100.00
30967;BME280;17649;51.836;8.330;2022-08-19T17:46:34;100633.91;;;27.52;100.00
30967;BME280;17649;51.836;8.330;2022-08-19T17:49:35;100628.16;;;27.42;100.00
30967;BME280;17649;51.836;8.330;2022-08-19T17:52:36;100631.22;;;27.39;100.00
30967;BME280;17649;51.836;8.330;2022-08-19T17:55:37;100623.41;;;27.38;100.00
30967;BME280;17649;51.836;8.330;2022-08-19T17:58:38;100626.44;;;27.34;100.00
30967;BME280;17649;51.836;8.330;2022-08-19T18:01:40;100620.31;;;27.34;100.00
30967;BME280;17649;51.836;8.330;2022-08-19T18:04:42;100617.63;;;27.27;100.00
30967;BME280;17649;51.836;8.330;2022-08-19T18:07:48;100618.84;;;27.25;100.00
30967;BME280;17649;51.836;8.330;2022-08-19T18:10:54;100612.72;;;27.24;100.00
30967;BME280;17649;51.836;8.330;2022-08-19T18:13:56;100616.13;;;27.18;100.00
30967;BME280;17649;51.836;8.330;2022-08-19T18:17:03;100618.97;;;27.17;100.00
30967;BME280;17649;51.836;8.330;2022-08-19T18:20:10;100613.00;;;27.08;100.00
30967;BME280;17649;51.836;8.330;2022-08-19T18:23:18;100620.63;;;26.96;100.00
30967;BME280;17649;51.836;8.330;2022-08-19T18:26:21;100622.56;;;26.88;100.00
30967;BME280;17649;51.836;8.330;2022-08-19T18:29:23;100615.69;;;26.72;100.00
30967;BME280;17649;51.836;8.330;2022-08-19T18:32:33;100628.91;;;26.65;100.00
30967;BME280;17649;51.836;8.330;2022-08-19T18:35:38;100629.84;;;26.58;100.00
30967;BME280;17649;51.836;8.330;2022-08-19T18:38:39;100631.34;;;26.45;100.00
30967;BME280;17649;51.836;8.330;2022-08-19T18:42:08;100637.78;;;26.36;100.00
30967;BME280;17649;51.836;8.330;2022-08-19T18:45:31;100639.59;;;26.21;100.00
30967;BME280;17649;51.836;8.330;2022-08-19T18:48:50;100646.81;;;26.12;100.00
30967;BME280;17649;51.836;8.330;2022-08-19T18:52:20;100651.25;;;26.05;100.00
30967;BME280;17649;51.836;8.330;2022-08-19T18:55:25;100655.34;;;25.93;100.00
30967;BME280;17649;51.836;8.330;2022-08-19T18:58:31;100662.03;;;25.89;100.00
30967;BME280;17649;51.836;8.330;2022-08-19T19:01:34;100659.91;;;25.84;100.00
30967;BME280;17649;51.836;8.330;2022-08-19T19:04:40;100665.78;;;25.80;100.00
30967;BME280;17649;51.836;8.330;2022-08-19T19:07:41;100671.44;;;25.77;100.00
30967;BME280;17649;51.836;8.330;2022-08-19T19:10:41;100677.06;;;25.74;100.00
30967;BME280;17649;51.836;8.330;2022-08-19T19:13:42;100681.94;;;25.70;100.00
30967;BME280;17649;51.836;8.330;2022-08-19T19:16:45;100688.56;;;25.66;100.00
30967;BME280;17649;51.836;8.330;2022-08-19T19:19:46;100689.22;;;25.68;100.00
30967;BME280;17649;51.836;8.330;2022-08-19T19:22:47;100692.41;;;25.64;100.00
30967;BME280;17649;51.836;8.330;2022-08-19T19:25:47;100698.41;;;25.57;100.00
30967;BME280;17649;51.836;8.330;2022-08-19T19:28:49;100700.69;;;25.46;100.00
30967;BME280;17649;51.836;8.330;2022-08-19T19:31:55;100704.56;;;25.35;100.00
30967;BME280;17649;51.836;8.330;2022-08-19T19:34:55;100706.47;;;25.26;100.00
30967;BME280;17649;51.836;8.330;2022-08-19T19:37:57;100712.00;;;25.17;100.00
30967;BME280;17649;51.836;8.330;2022-08-19T19:40:58;100716.25;;;25.03;100.00
30967;BME280;17649;51.836;8.330;2022-08-19T19:43:59;100713.59;;;24.95;100.00
30967;BME280;17649;51.836;8.330;2022-08-19T19:47:00;100720.28;;;24.83;100.00